createdAt,value
2023-03-08T00:01:24.198Z,96068.13
2023-03-08T00:03:53.754Z,96072.34
2023-03-08T00:06:22.480Z,96075.75
2023-03-08T00:08:56.097Z,96063.03
2023-03-08T00:11:24.515Z,96055.66
2023-03-08T00:13:53.024Z,96064.84
2023-03-08T00:16:21.429Z,96070.09
2023-03-08T00:18:50.036Z,96080.19
2023-03-08T00:21:19.800Z,96081.81
2023-03-08T00:23:48.376Z,96081.81
2023-03-08T00:26:18.086Z,96071.81
2023-03-08T00:28:47.364Z,96080.31
2023-03-08T00:31:15.978Z,96076.84
2023-03-08T00:33:44.312Z,96072.66
2023-03-08T00:36:17.791Z,96073.47
2023-03-08T00:38:46.984Z,96064.94
2023-03-08T00:41:17.418Z,96066.66
2023-03-08T00:43:45.876Z,96068.31
2023-03-08T00:46:14.961Z,96065.81
2023-03-08T00:48:43.657Z,96066.66
2023-03-08T00:51:14.007Z,96062.44
2023-03-08T00:53:42.410Z,96067.50
2023-03-08T00:56:11.539Z,96059.84
2023-03-08T00:58:42.447Z,96064.94
2023-03-08T01:01:16.991Z,96070.09
2023-03-08T01:03:48.110Z,96064.09
2023-03-08T01:06:17.606Z,96070.91
2023-03-08T01:08:46.383Z,96062.34
2023-03-08T01:11:20.344Z,96065.72
2023-03-08T01:13:50.525Z,96070.72
2023-03-08T01:16:20.356Z,96063.09
2023-03-08T01:18:48.738Z,96074.03
2023-03-08T01:21:17.837Z,96083.41
2023-03-08T01:23:46.184Z,96080.06
2023-03-08T01:26:16.418Z,96094.47
2023-03-08T01:28:44.812Z,96089.41
2023-03-08T01:31:16.269Z,96097.88
2023-03-08T01:33:44.888Z,96091.91
2023-03-08T01:36:16.172Z,96107.16
2023-03-08T01:38:46.544Z,96108.88
2023-03-08T01:41:17.798Z,96112.34
2023-03-08T01:43:46.485Z,96111.50
2023-03-08T01:46:28.392Z,96118.28
2023-03-08T01:49:37.380Z,96132.03
2023-03-08T01:52:10.407Z,96124.53
2023-03-08T01:54:41.347Z,96117.75
2023-03-08T01:57:13.406Z,96122.78
2023-03-08T01:59:41.994Z,96111.75
2023-03-08T02:02:12.096Z,96111.78
2023-03-08T02:04:40.956Z,96123.81
2023-03-08T02:07:12.819Z,96120.53
2023-03-08T02:09:42.339Z,96127.34
2023-03-08T02:12:13.174Z,96131.56
2023-03-08T02:14:42.842Z,96132.34
2023-03-08T02:17:13.212Z,96128.91
2023-03-08T02:19:47.434Z,96130.59
2023-03-08T02:22:16.673Z,96144.06
2023-03-08T02:24:46.547Z,96145.78
2023-03-08T02:27:16.910Z,96139.00
2023-03-08T02:29:45.352Z,96146.66
2023-03-08T02:32:13.644Z,96134.69
2023-03-08T02:34:41.957Z,96139.81
2023-03-08T02:37:10.327Z,96136.50
2023-03-08T02:39:38.602Z,96155.16
2023-03-08T02:42:08.956Z,96159.34
2023-03-08T02:44:37.384Z,96166.13
2023-03-08T02:47:06.617Z,96159.31
2023-03-08T02:49:34.898Z,96155.03
2023-03-08T02:52:04.036Z,96166.91
2023-03-08T02:54:32.312Z,96171.16
2023-03-08T02:57:01.832Z,96168.59
2023-03-08T02:59:32.649Z,96171.91
2023-03-08T03:02:01.194Z,96179.47
2023-03-08T03:04:31.307Z,96171.78
2023-03-08T03:07:00.518Z,96179.41
2023-03-08T03:09:29.908Z,96180.31
2023-03-08T03:11:58.486Z,96181.25
2023-03-08T03:14:29.262Z,96168.44
2023-03-08T03:16:59.740Z,96183.78
2023-03-08T03:19:28.309Z,96183.78
2023-03-08T03:21:56.663Z,96183.00
2023-03-08T03:24:25.088Z,96183.88
2023-03-08T03:26:57.329Z,96186.31
2023-03-08T03:29:28.504Z,96188.84
2023-03-08T03:32:09.158Z,96207.56
2023-03-08T03:34:37.558Z,96207.63
2023-03-08T03:37:06.149Z,96203.38
2023-03-08T03:39:38.084Z,96199.16
2023-03-08T03:42:08.644Z,96205.97
2023-03-08T03:44:39.723Z,96205.13
2023-03-08T03:47:12.889Z,96204.31
2023-03-08T03:49:41.349Z,96201.66
2023-03-08T03:52:09.741Z,96203.16
2023-03-08T03:54:44.130Z,96207.31
2023-03-08T03:57:12.377Z,96208.75
2023-03-08T03:59:43.272Z,96208.72
2023-03-08T04:02:13.493Z,96223.03
2023-03-08T04:04:50.827Z,96236.63
2023-03-08T04:07:22.811Z,96244.22
2023-03-08T04:09:57.841Z,96245.88
2023-03-08T04:12:26.912Z,96245.00
2023-03-08T04:14:55.338Z,96237.41
2023-03-08T04:17:27.092Z,96239.13
2023-03-08T04:19:56.384Z,96237.47
2023-03-08T04:22:24.862Z,96229.69
2023-03-08T04:25:03.682Z,96227.84
2023-03-08T04:27:43.411Z,96236.16
2023-03-08T04:30:13.235Z,96231.00
2023-03-08T04:32:43.932Z,96239.25
2023-03-08T04:35:12.756Z,96240.06
2023-03-08T04:37:45.594Z,96246.69
2023-03-08T04:40:15.175Z,96256.75
2023-03-08T04:42:50.807Z,96257.59
2023-03-08T04:45:24.945Z,96263.44
2023-03-08T04:47:57.108Z,96274.34
2023-03-08T04:50:25.542Z,96276.00
2023-03-08T04:52:59.059Z,96275.16
2023-03-08T04:55:28.146Z,96276.06
2023-03-08T04:57:56.687Z,96272.72
2023-03-08T05:00:25.584Z,96277.81
2023-03-08T05:02:56.263Z,96268.50
2023-03-08T05:05:26.012Z,96272.72
2023-03-08T05:07:55.287Z,96272.66
2023-03-08T05:10:23.584Z,96278.78
2023-03-08T05:12:52.206Z,96268.59
2023-03-08T05:15:23.555Z,96265.13
2023-03-08T05:17:51.994Z,96265.88
2023-03-08T05:20:22.145Z,96280.41
2023-03-08T05:22:58.944Z,96288.94
2023-03-08T05:25:34.225Z,96280.56
2023-03-08T05:28:03.801Z,96279.03
2023-03-08T05:30:32.435Z,96280.69
2023-03-08T05:33:01.229Z,96275.53
2023-03-08T05:35:33.170Z,96277.31
2023-03-08T05:38:01.827Z,96280.59
2023-03-08T05:40:30.379Z,96292.59
2023-03-08T05:42:59.475Z,96300.50
2023-03-08T05:45:28.979Z,96309.47
2023-03-08T05:47:57.386Z,96313.94
2023-03-08T05:50:26.043Z,96314.50
2023-03-08T05:52:56.260Z,96315.38
2023-03-08T05:55:29.535Z,96319.50
2023-03-08T05:57:59.438Z,96319.00
2023-03-08T06:00:29.023Z,96318.81
2023-03-08T06:03:03.960Z,96322.97
2023-03-08T06:05:35.511Z,96313.72
2023-03-08T06:08:06.629Z,96321.53
2023-03-08T06:10:35.191Z,96323.53
2023-03-08T06:13:04.650Z,96317.53
2023-03-08T06:15:33.220Z,96318.56
2023-03-08T06:18:03.730Z,96320.25
2023-03-08T06:20:32.982Z,96326.19
2023-03-08T06:23:02.124Z,96323.72
2023-03-08T06:25:33.918Z,96323.00
2023-03-08T06:28:02.576Z,96321.50
2023-03-08T06:30:38.934Z,96326.66
2023-03-08T06:33:07.692Z,96320.84
2023-03-08T06:35:36.187Z,96320.00
2023-03-08T06:38:06.407Z,96322.63
2023-03-08T06:40:37.172Z,96330.31
2023-03-08T06:43:05.562Z,96332.06
2023-03-08T06:45:35.123Z,96327.81
2023-03-08T06:48:03.469Z,96326.16
2023-03-08T06:50:31.896Z,96326.09
2023-03-08T06:53:00.337Z,96330.41
2023-03-08T06:55:45.812Z,96343.44
2023-03-08T06:58:14.353Z,96347.88
2023-03-08T07:00:42.762Z,96350.56
2023-03-08T07:03:11.757Z,96348.00
2023-03-08T07:05:40.224Z,96353.13
2023-03-08T07:08:08.954Z,96354.00
2023-03-08T07:10:37.277Z,96340.47
2023-03-08T07:13:06.942Z,96341.47
2023-03-08T07:15:35.638Z,96338.19
2023-03-08T07:18:03.919Z,96328.88
2023-03-08T07:20:32.208Z,96328.88
2023-03-08T07:23:02.050Z,96329.78
2023-03-08T07:25:30.441Z,96331.50
2023-03-08T07:28:00.170Z,96330.66
2023-03-08T07:30:29.907Z,96328.94
2023-03-08T07:32:58.379Z,96332.38
2023-03-08T07:35:27.568Z,96322.97
2023-03-08T07:37:55.994Z,96324.69
2023-03-08T07:40:24.574Z,96315.28
2023-03-08T07:42:53.146Z,96315.25
2023-03-08T07:45:45.523Z,96313.47
2023-03-08T07:48:13.796Z,96320.41
2023-03-08T07:50:42.167Z,96314.44
2023-03-08T07:53:10.529Z,96321.22
2023-03-08T07:55:39.321Z,96329.81
2023-03-08T07:58:07.726Z,96324.66
2023-03-08T08:00:36.115Z,96316.09
2023-03-08T08:03:06.160Z,96307.47
2023-03-08T08:05:36.740Z,96305.75
2023-03-08T08:08:05.652Z,96303.91
2023-03-08T08:10:33.910Z,96310.72
2023-03-08T08:13:02.277Z,96306.38
2023-03-08T08:15:31.095Z,96296.09
2023-03-08T08:17:59.517Z,96285.84
2023-03-08T08:20:29.603Z,96284.13
2023-03-08T08:22:57.924Z,96274.31
2023-03-08T08:25:26.269Z,96278.44
2023-03-08T08:27:54.591Z,96267.13
2023-03-08T08:30:22.958Z,96264.38
2023-03-08T08:32:53.273Z,96256.31
2023-03-08T08:35:23.956Z,96260.47
2023-03-08T08:37:56.777Z,96265.50
2023-03-08T08:40:25.872Z,96246.78
2023-03-08T08:42:55.661Z,96253.97
2023-03-08T08:45:24.096Z,96249.25
2023-03-08T08:47:52.458Z,96244.75
2023-03-08T08:50:20.900Z,96251.44
2023-03-08T08:52:49.351Z,96241.75
2023-03-08T08:55:19.254Z,96241.13
2023-03-08T08:57:47.520Z,96240.91
2023-03-08T09:00:20.027Z,96251.84
2023-03-08T09:02:48.411Z,96252.16
2023-03-08T09:05:16.835Z,96255.66
2023-03-08T09:07:45.262Z,96262.94
2023-03-08T09:10:14.873Z,96258.25
2023-03-08T09:12:44.611Z,96249.38
2023-03-08T09:15:13.183Z,96252.66
2023-03-08T09:17:41.507Z,96265.06
2023-03-08T09:20:11.902Z,96269.25
2023-03-08T09:22:40.380Z,96271.75
2023-03-08T09:25:09.810Z,96265.72
2023-03-08T09:27:38.617Z,96264.69
2023-03-08T09:30:12.777Z,96264.19
2023-03-08T09:32:41.121Z,96261.53
2023-03-08T09:35:10.134Z,96258.50
2023-03-08T09:37:39.240Z,96257.19
2023-03-08T09:40:09.787Z,96247.69
2023-03-08T09:42:38.430Z,96243.94
2023-03-08T09:45:25.493Z,96249.13
2023-03-08T09:48:05.049Z,96249.13
2023-03-08T09:50:37.140Z,96243.72
2023-03-08T09:53:10.658Z,96253.94
2023-03-08T09:55:45.861Z,96252.06
2023-03-08T09:58:31.040Z,96251.72
2023-03-08T10:01:05.676Z,96257.94
2023-03-08T10:03:59.682Z,96254.75
2023-03-08T10:06:31.982Z,96256.38
2023-03-08T10:09:04.340Z,96261.56
2023-03-08T10:11:37.500Z,96254.34
2023-03-08T10:14:14.243Z,96251.97
2023-03-08T10:16:46.960Z,96258.72
2023-03-08T10:19:18.459Z,96256.97
2023-03-08T10:21:48.162Z,96244.44
2023-03-08T10:24:18.273Z,96240.88
2023-03-08T10:26:46.855Z,96231.75
2023-03-08T10:29:15.726Z,96238.50
2023-03-08T10:31:47.242Z,96234.88
2023-03-08T10:34:17.710Z,96215.69
2023-03-08T10:36:51.699Z,96201.63
2023-03-08T10:39:21.258Z,96195.41
2023-03-08T10:41:52.248Z,96185.31
2023-03-08T10:44:34.051Z,96179.09
2023-03-08T10:47:05.804Z,96173.72
2023-03-08T10:49:34.735Z,96168.03
2023-03-08T10:52:03.229Z,96163.25
2023-03-08T10:54:31.580Z,96158.09
2023-03-08T10:57:01.559Z,96152.69
2023-03-08T10:59:33.500Z,96149.19
2023-03-08T11:02:22.672Z,96141.28
2023-03-08T11:04:55.732Z,96142.38
2023-03-08T11:07:26.539Z,96146.91
2023-03-08T11:10:07.951Z,96133.63
2023-03-08T11:12:36.704Z,96106.75
2023-03-08T11:15:15.039Z,96104.03
2023-03-08T11:17:50.506Z,96109.88
2023-03-08T11:20:24.962Z,96105.50
2023-03-08T11:23:00.688Z,96112.53
2023-03-08T11:25:46.095Z,96102.41
2023-03-08T11:28:30.612Z,96086.84
2023-03-08T11:31:09.669Z,96081.97
2023-03-08T11:33:48.969Z,96084.44
2023-03-08T11:36:22.876Z,96077.69
2023-03-08T11:39:03.581Z,96069.63
2023-03-08T11:41:39.811Z,96065.06
2023-03-08T11:44:36.609Z,96061.19
2023-03-08T11:47:45.154Z,96041.22
2023-03-08T11:50:20.054Z,96028.97
2023-03-08T11:52:59.279Z,96024.16
2023-03-08T11:55:38.716Z,96024.88
2023-03-08T11:58:25.475Z,96023.50
2023-03-08T12:00:57.227Z,96008.47
2023-03-08T12:03:29.432Z,96016.81
2023-03-08T12:06:01.832Z,96009.53
2023-03-08T12:08:33.456Z,95999.75
2023-03-08T12:11:04.075Z,95998.34
2023-03-08T12:13:35.629Z,95989.25
2023-03-08T12:16:12.497Z,95987.63
2023-03-08T12:18:46.252Z,95981.53
2023-03-08T12:21:29.099Z,95979.94
2023-03-08T12:24:04.023Z,95979.25
2023-03-08T12:26:35.795Z,95978.63
2023-03-08T12:29:07.176Z,95975.63
2023-03-08T12:31:38.888Z,95960.38
2023-03-08T12:34:14.589Z,95959.31
2023-03-08T12:36:46.007Z,95953.88
2023-03-08T12:39:27.636Z,95951.63
2023-03-08T12:42:01.994Z,95940.16
2023-03-08T12:44:31.693Z,95942.13
2023-03-08T12:47:04.166Z,95933.22
2023-03-08T12:49:35.747Z,95928.28
2023-03-08T12:52:07.546Z,95918.97
2023-03-08T12:54:37.046Z,95909.03
2023-03-08T12:57:17.042Z,95914.06
2023-03-08T12:59:46.145Z,95902.25
2023-03-08T13:02:28.529Z,95904.59
2023-03-08T13:05:06.767Z,95901.47
2023-03-08T13:07:38.512Z,95885.22
2023-03-08T13:10:10.251Z,95889.06
2023-03-08T13:12:43.662Z,95887.97
2023-03-08T13:15:26.448Z,95886.19
2023-03-08T13:18:00.810Z,95884.72
2023-03-08T13:20:35.979Z,95881.56
2023-03-08T13:23:11.265Z,95879.84
2023-03-08T13:25:51.791Z,95872.94
2023-03-08T13:28:20.932Z,95874.78
2023-03-08T13:30:52.306Z,95859.31
2023-03-08T13:33:23.202Z,95866.94
2023-03-08T13:35:59.271Z,95855.38
2023-03-08T13:38:31.560Z,95850.69
2023-03-08T13:41:00.733Z,95855.66
2023-03-08T13:43:30.898Z,95847.44
2023-03-08T13:46:01.911Z,95840.47
2023-03-08T13:48:32.449Z,95842.78
2023-03-08T13:51:01.128Z,95832.78
2023-03-08T13:53:33.313Z,95828.88
2023-03-08T13:56:03.377Z,95832.28
2023-03-08T13:58:34.327Z,95821.13
2023-03-08T14:01:05.515Z,95823.94
2023-03-08T14:03:34.546Z,95828.31
2023-03-08T14:06:02.972Z,95826.31
2023-03-08T14:08:32.876Z,95820.97
2023-03-08T14:11:04.261Z,95811.72
2023-03-08T14:13:35.350Z,95806.53
2023-03-08T14:16:06.627Z,95800.47
2023-03-08T14:18:37.330Z,95809.50
2023-03-08T14:21:15.416Z,95816.47
2023-03-08T14:23:48.657Z,95808.00
2023-03-08T14:26:34.999Z,95803.09
2023-03-08T14:29:15.644Z,95812.69
2023-03-08T14:31:54.898Z,95817.47
2023-03-08T14:34:25.151Z,95806.19
2023-03-08T14:36:56.641Z,95799.13
2023-03-08T14:39:27.584Z,95796.59
2023-03-08T14:41:56.272Z,95790.22
2023-03-08T14:44:27.678Z,95789.50
2023-03-08T14:46:59.412Z,95782.59
2023-03-08T14:49:30.156Z,95791.34
2023-03-08T14:51:59.459Z,95785.25
2023-03-08T14:54:33.979Z,95789.88
2023-03-08T14:57:18.124Z,95786.16
2023-03-08T14:59:46.575Z,95776.94
2023-03-08T15:02:16.048Z,95768.00
2023-03-08T15:04:45.779Z,95765.25
2023-03-08T15:07:18.304Z,95784.72
2023-03-08T15:09:48.318Z,95791.78
2023-03-08T15:12:16.665Z,95794.56
2023-03-08T15:14:45.004Z,95797.25
2023-03-08T15:17:13.403Z,95799.81
2023-03-08T15:19:41.769Z,95796.25
2023-03-08T15:22:13.722Z,95790.78
2023-03-08T15:24:42.204Z,95798.16
2023-03-08T15:27:15.721Z,95796.59
2023-03-08T15:29:44.030Z,95798.03
2023-03-08T15:32:12.381Z,95792.03
2023-03-08T15:34:41.073Z,95796.50
2023-03-08T15:37:13.033Z,95798.97
2023-03-08T15:39:41.560Z,95784.91
2023-03-08T15:42:09.970Z,95787.97
2023-03-08T15:44:40.613Z,95782.97
2023-03-08T15:47:10.873Z,95787.63
2023-03-08T15:49:39.183Z,95789.31
2023-03-08T15:52:08.783Z,95785.78
2023-03-08T15:54:37.211Z,95776.44
2023-03-08T15:57:05.665Z,95778.84
2023-03-08T15:59:33.967Z,95769.94
2023-03-08T16:02:04.031Z,95766.50
2023-03-08T16:04:32.453Z,95765.22
2023-03-08T16:07:00.822Z,95773.41
2023-03-08T16:09:29.195Z,95769.28
2023-03-08T16:11:57.555Z,95775.00
2023-03-08T16:14:25.958Z,95785.63
2023-03-08T16:16:54.315Z,95789.97
2023-03-08T16:19:24.357Z,95801.03
2023-03-08T16:21:52.801Z,95806.41
2023-03-08T16:24:34.262Z,95806.50
2023-03-08T16:27:09.965Z,95808.72
2023-03-08T16:29:38.752Z,95799.34
2023-03-08T16:32:15.644Z,95807.31
2023-03-08T16:34:59.625Z,95801.84
2023-03-08T16:37:28.403Z,95802.66
2023-03-08T16:40:00.412Z,95806.38
2023-03-08T16:42:28.756Z,95804.25
2023-03-08T16:44:59.093Z,95810.84
2023-03-08T16:47:35.632Z,95807.06
2023-03-08T16:50:11.760Z,95811.25
2023-03-08T16:52:42.152Z,95811.25
2023-03-08T16:55:12.705Z,95808.75
2023-03-08T16:57:42.965Z,95804.47
2023-03-08T17:00:14.076Z,95801.22
2023-03-08T17:02:45.414Z,95799.66
2023-03-08T17:05:15.916Z,95804.41
2023-03-08T17:07:44.764Z,95812.38
2023-03-08T17:10:15.923Z,95807.31
2023-03-08T17:12:44.559Z,95807.66
2023-03-08T17:15:15.595Z,95817.78
2023-03-08T17:17:46.317Z,95813.34
2023-03-08T17:20:19.893Z,95821.03
2023-03-08T17:22:48.168Z,95821.34
2023-03-08T17:25:16.594Z,95818.47
2023-03-08T17:27:45.310Z,95830.63
2023-03-08T17:30:16.170Z,95838.38
2023-03-08T17:32:44.817Z,95827.88
2023-03-08T17:35:13.282Z,95834.75
2023-03-08T17:37:43.637Z,95837.34
2023-03-08T17:40:13.747Z,95833.59
2023-03-08T17:42:42.323Z,95834.47
2023-03-08T17:45:11.552Z,95826.84
2023-03-08T17:47:39.914Z,95821.97
2023-03-08T17:50:09.958Z,95822.34
2023-03-08T17:52:40.657Z,95824.00
2023-03-08T17:55:12.508Z,95812.13
2023-03-08T17:57:40.872Z,95823.06
2023-03-08T18:00:12.366Z,95829.16
2023-03-08T18:02:41.361Z,95832.75
2023-03-08T18:05:11.241Z,95837.34
2023-03-08T18:07:41.900Z,95827.28
2023-03-08T18:10:13.510Z,95826.66
2023-03-08T18:12:43.234Z,95823.34
2023-03-08T18:15:14.789Z,95832.19
2023-03-08T18:17:44.204Z,95835.16
2023-03-08T18:20:15.056Z,95825.00
2023-03-08T18:22:44.807Z,95824.50
2023-03-08T18:25:17.228Z,95817.16
2023-03-08T18:27:49.141Z,95826.81
2023-03-08T18:30:19.204Z,95837.09
2023-03-08T18:32:51.288Z,95849.34
2023-03-08T18:35:20.475Z,95853.66
2023-03-08T18:37:49.715Z,95841.06
2023-03-08T18:40:23.175Z,95836.75
2023-03-08T18:42:56.571Z,95829.69
2023-03-08T18:45:26.210Z,95826.97
2023-03-08T18:47:56.210Z,95833.06
2023-03-08T18:50:25.588Z,95838.13
2023-03-08T18:52:54.800Z,95844.81
2023-03-08T18:55:27.736Z,95842.94
2023-03-08T18:57:57.741Z,95841.66
2023-03-08T19:00:27.575Z,95837.28
2023-03-08T19:02:57.815Z,95836.28
2023-03-08T19:05:28.572Z,95833.78
2023-03-08T19:07:58.526Z,95823.63
2023-03-08T19:10:33.262Z,95824.81
2023-03-08T19:13:03.113Z,95827.81
2023-03-08T19:15:38.251Z,95828.22
2023-03-08T19:18:09.284Z,95833.50
2023-03-08T19:20:40.093Z,95834.94
2023-03-08T19:23:13.264Z,95838.63
2023-03-08T19:25:59.055Z,95829.16
2023-03-08T19:28:30.043Z,95829.19
2023-03-08T19:31:04.377Z,95821.69
2023-03-08T19:33:35.657Z,95815.66
2023-03-08T19:36:08.632Z,95815.88
2023-03-08T19:38:39.106Z,95809.94
2023-03-08T19:41:12.703Z,95805.34
2023-03-08T19:43:43.521Z,95804.22
2023-03-08T19:46:17.998Z,95795.44
2023-03-08T19:48:50.460Z,95796.50
2023-03-08T19:51:25.485Z,95790.75
2023-03-08T19:53:58.128Z,95802.19
2023-03-08T19:56:31.132Z,95795.09
2023-03-08T19:59:02.747Z,95798.56
2023-03-08T20:01:33.049Z,95796.00
2023-03-08T20:04:06.253Z,95800.16
2023-03-08T20:06:42.654Z,95800.94
2023-03-08T20:09:18.632Z,95804.47
2023-03-08T20:11:54.912Z,95814.00
2023-03-08T20:14:28.426Z,95825.31
2023-03-08T20:16:59.958Z,95833.91
2023-03-08T20:19:36.607Z,95834.06
2023-03-08T20:22:08.842Z,95837.34
2023-03-08T20:24:40.936Z,95848.47
2023-03-08T20:27:14.353Z,95857.19
2023-03-08T20:29:46.303Z,95870.03
2023-03-08T20:32:20.174Z,95863.69
2023-03-08T20:34:52.665Z,95860.34
2023-03-08T20:37:24.843Z,95847.16
2023-03-08T20:39:55.325Z,95850.75
2023-03-08T20:42:27.849Z,95857.06
2023-03-08T20:44:59.181Z,95847.03
2023-03-08T20:47:32.914Z,95849.53
2023-03-08T20:50:04.855Z,95819.53
2023-03-08T20:52:37.217Z,95827.06
2023-03-08T20:55:08.213Z,95816.56
2023-03-08T20:57:40.474Z,95823.00
2023-03-08T21:00:17.244Z,95834.13
2023-03-08T21:02:48.622Z,95828.22
2023-03-08T21:05:19.531Z,95823.13
2023-03-08T21:07:56.376Z,95828.13
2023-03-08T21:10:28.151Z,95814.91
2023-03-08T21:13:01.093Z,95812.25
2023-03-08T21:15:31.875Z,95820.72
2023-03-08T21:18:02.852Z,95812.13
2023-03-08T21:20:33.331Z,95803.88
2023-03-08T21:23:03.693Z,95817.75
2023-03-08T21:25:35.500Z,95814.53
2023-03-08T21:28:07.636Z,95795.88
2023-03-08T21:30:37.634Z,95801.41
2023-03-08T21:33:08.454Z,95799.03
2023-03-08T21:35:40.905Z,95801.75
2023-03-08T21:38:11.231Z,95805.19
2023-03-08T21:40:43.059Z,95812.63
2023-03-08T21:43:13.613Z,95800.34
2023-03-08T21:45:44.203Z,95803.75
2023-03-08T21:48:12.985Z,95794.13
2023-03-08T21:50:41.772Z,95794.13
2023-03-08T21:53:10.834Z,95813.91
2023-03-08T21:55:40.663Z,95795.06
2023-03-08T21:58:09.168Z,95798.28
2023-03-08T22:00:39.046Z,95792.09
2023-03-08T22:03:07.851Z,95799.13
2023-03-08T22:05:36.164Z,95804.28
2023-03-08T22:08:04.465Z,95811.31
2023-03-08T22:10:32.678Z,95808.19
2023-03-08T22:13:01.163Z,95811.56
2023-03-08T22:15:29.461Z,95800.56
2023-03-08T22:17:59.310Z,95797.63
2023-03-08T22:20:28.564Z,95796.00
2023-03-08T22:22:56.929Z,95809.66
2023-03-08T22:25:25.287Z,95820.78
2023-03-08T22:27:53.589Z,95812.94
2023-03-08T22:30:21.962Z,95824.09
2023-03-08T22:32:50.505Z,95809.78
2023-03-08T22:35:21.603Z,95804.78
2023-03-08T22:37:50.419Z,95808.41
2023-03-08T22:40:19.590Z,95807.69
2023-03-08T22:42:48.177Z,95809.25
2023-03-08T22:45:16.767Z,95807.13
2023-03-08T22:47:45.134Z,95797.09
2023-03-08T22:50:14.047Z,95799.56
2023-03-08T22:52:43.881Z,95793.00
2023-03-08T22:55:13.206Z,95789.41
2023-03-08T22:57:41.614Z,95791.94
2023-03-08T23:00:14.546Z,95783.41
2023-03-08T23:02:43.665Z,95785.78
2023-03-08T23:05:13.489Z,95783.69
2023-03-08T23:07:43.224Z,95782.88
2023-03-08T23:10:13.149Z,95792.06
2023-03-08T23:12:41.812Z,95789.63
2023-03-08T23:15:10.928Z,95780.09
2023-03-08T23:17:39.887Z,95790.31
2023-03-08T23:20:10.082Z,95780.31
2023-03-08T23:22:38.484Z,95775.53
2023-03-08T23:25:10.196Z,95789.59
2023-03-08T23:27:38.621Z,95776.22
2023-03-08T23:30:08.582Z,95778.25
2023-03-08T23:32:36.988Z,95785.59
2023-03-08T23:35:05.834Z,95773.06
2023-03-08T23:37:34.351Z,95768.09
2023-03-08T23:40:04.850Z,95775.13
2023-03-08T23:42:35.953Z,95775.13
2023-03-08T23:45:04.498Z,95765.75
2023-03-08T23:47:33.181Z,95770.16
2023-03-08T23:50:01.772Z,95761.75
2023-03-08T23:52:30.159Z,95748.75
2023-03-08T23:54:58.525Z,95736.41
2023-03-08T23:57:30.328Z,95744.56
